createdAt,value
2022-09-05T00:00:01.871Z,16.14
2022-09-05T00:02:52.628Z,16.25
2022-09-05T00:05:55.468Z,16.51
2022-09-05T00:08:38.746Z,16.73
2022-09-05T00:11:40.710Z,17.08
2022-09-05T00:14:10.197Z,17.39
2022-09-05T00:17:03.412Z,17.39
2022-09-05T00:24:20.077Z,17.40
2022-09-05T00:24:25.526Z,17.02
2022-09-05T00:25:47.456Z,16.98
2022-09-05T00:28:25.721Z,17.11
2022-09-05T00:31:54.175Z,17.16
2022-09-05T00:34:18.292Z,17.18
2022-09-05T00:36:51.131Z,16.98
2022-09-05T00:39:23.265Z,16.92
2022-09-05T00:41:55.617Z,16.89
2022-09-05T00:44:26.918Z,16.79
2022-09-05T00:47:03.663Z,16.73
2022-09-05T00:49:41.309Z,16.74
2022-09-05T00:52:17.972Z,16.66
2022-09-05T00:54:59.803Z,16.58
2022-09-05T00:57:43.643Z,16.61
2022-09-05T01:00:17.985Z,16.62
2022-09-05T01:03:10.275Z,16.59
2022-09-05T01:06:05.307Z,16.47
2022-09-05T01:09:07.430Z,16.46
2022-09-05T01:11:58.043Z,16.34
2022-09-05T01:14:44.057Z,16.30
2022-09-05T01:17:28.274Z,16.19
2022-09-05T01:20:19.221Z,16.14
2022-09-05T01:23:19.562Z,16.06
2022-09-05T01:26:07.334Z,16.19
2022-09-05T01:29:17.658Z,16.21
2022-09-05T01:31:38.825Z,16.10
2022-09-05T01:34:16.555Z,16.09
2022-09-05T01:37:04.862Z,16.03
2022-09-05T01:40:14.756Z,16.08
2022-09-05T01:42:44.333Z,16.11
2022-09-05T01:45:21.753Z,16.11
2022-09-05T01:48:04.298Z,16.11
2022-09-05T01:50:57.253Z,16.16
2022-09-05T01:53:37.233Z,16.16
2022-09-05T01:56:30.104Z,15.95
2022-09-05T01:59:12.616Z,15.92
2022-09-05T02:02:09.152Z,15.93
2022-09-05T02:05:06.801Z,15.77
2022-09-05T02:07:55.846Z,15.87
2022-09-05T02:10:41.715Z,15.86
2022-09-05T02:13:24.000Z,15.85
2022-09-05T02:16:00.485Z,15.97
2022-09-05T02:18:46.491Z,16.11
2022-09-05T02:21:26.627Z,16.04
2022-09-05T02:24:07.736Z,16.05
2022-09-05T02:26:43.289Z,16.12
2022-09-05T02:29:29.352Z,16.17
2022-09-05T02:32:03.155Z,16.13
2022-09-05T02:34:43.698Z,15.83
2022-09-05T02:37:22.823Z,15.70
2022-09-05T02:45:04.042Z,15.73
2022-09-05T02:45:06.970Z,15.81
2022-09-05T02:46:11.218Z,15.97
2022-09-05T02:48:51.047Z,16.01
2022-09-05T02:57:25.943Z,15.86
2022-09-05T02:57:34.738Z,15.59
2022-09-05T02:58:05.649Z,15.23
2022-09-05T03:00:20.993Z,15.11
2022-09-05T03:03:05.710Z,15.04
2022-09-05T03:05:38.210Z,15.17
2022-09-05T03:08:27.859Z,15.21
2022-09-05T03:11:28.154Z,15.04
2022-09-05T03:14:27.570Z,14.86
2022-09-05T03:17:16.246Z,14.69
2022-09-05T03:20:32.553Z,14.58
2022-09-05T03:23:49.134Z,14.51
2022-09-05T03:27:04.805Z,14.40
2022-09-05T03:29:58.396Z,14.36
2022-09-05T03:32:49.010Z,14.35
2022-09-05T03:35:56.568Z,14.35
2022-09-05T03:39:05.853Z,14.35
2022-09-05T03:41:50.779Z,14.43
2022-09-05T03:44:41.131Z,14.50
2022-09-05T03:47:41.863Z,14.75
2022-09-05T03:56:30.983Z,14.80
2022-09-05T03:57:18.175Z,14.92
2022-09-05T03:57:38.650Z,15.08
2022-09-05T04:00:11.144Z,14.95
2022-09-05T04:08:08.030Z,15.26
2022-09-05T04:08:19.033Z,15.57
2022-09-05T04:08:44.338Z,15.47
2022-09-05T04:11:17.553Z,15.38
2022-09-05T04:13:55.785Z,15.36
2022-09-05T04:16:29.228Z,15.40
2022-09-05T04:19:06.639Z,15.47
2022-09-05T04:21:38.905Z,15.57
2022-09-05T04:24:12.444Z,15.65
2022-09-05T04:26:47.745Z,15.36
2022-09-05T04:29:24.276Z,15.44
2022-09-05T04:32:07.498Z,15.64
2022-09-05T04:35:03.321Z,15.83
2022-09-05T04:37:48.938Z,15.99
2022-09-05T04:40:37.674Z,15.90
2022-09-05T04:43:09.147Z,15.98
2022-09-05T04:45:44.558Z,16.13
2022-09-05T04:48:21.346Z,16.18
2022-09-05T04:51:06.072Z,16.13
2022-09-05T04:54:02.247Z,15.90
2022-09-05T04:56:36.415Z,15.93
2022-09-05T05:02:47.959Z,15.91
2022-09-05T05:06:09.767Z,16.02
2022-09-05T05:06:13.324Z,16.09
2022-09-05T05:07:59.168Z,16.04
2022-09-05T05:15:02.778Z,15.93
2022-09-05T05:17:59.563Z,16.24
2022-09-05T05:18:07.036Z,16.50
2022-09-05T05:19:21.592Z,16.66
2022-09-05T05:21:54.695Z,16.71
2022-09-05T05:24:28.292Z,16.39
2022-09-05T05:26:59.222Z,16.64
2022-09-05T05:29:38.712Z,16.74
2022-09-05T05:32:08.779Z,16.83
2022-09-05T05:34:46.148Z,16.87
2022-09-05T05:37:21.773Z,16.85
2022-09-05T05:39:52.910Z,16.82
2022-09-05T05:42:24.293Z,17.04
2022-09-05T05:44:54.687Z,17.21
2022-09-05T05:47:31.999Z,17.33
2022-09-05T05:50:11.699Z,17.48
2022-09-05T05:53:01.145Z,17.48
2022-09-05T05:55:58.425Z,17.74
2022-09-05T05:58:38.369Z,17.89
2022-09-05T06:01:42.377Z,18.29
2022-09-05T06:04:44.915Z,18.71
2022-09-05T06:07:25.744Z,19.10
2022-09-05T06:14:48.125Z,18.47
2022-09-05T06:14:57.482Z,18.89
2022-09-05T06:16:59.648Z,19.35
2022-09-05T06:22:07.379Z,19.36
2022-09-05T06:23:39.616Z,19.76
2022-09-05T06:26:41.416Z,19.53
2022-09-05T06:29:17.603Z,19.76
2022-09-05T06:32:02.341Z,18.74
2022-09-05T06:35:23.271Z,18.28
2022-09-05T06:38:04.858Z,17.95
2022-09-05T06:40:42.382Z,17.97
2022-09-05T06:43:27.561Z,18.35
2022-09-05T06:46:54.963Z,18.98
2022-09-05T06:49:28.937Z,19.28
2022-09-05T06:52:28.140Z,20.11
2022-09-05T06:55:23.116Z,20.87
2022-09-05T06:58:18.602Z,21.02
2022-09-05T07:00:48.773Z,22.13
2022-09-05T07:03:33.435Z,23.27
2022-09-05T07:06:07.907Z,24.21
2022-09-05T07:08:48.105Z,24.80
2022-09-05T07:11:20.647Z,25.33
2022-09-05T07:14:04.787Z,25.66
2022-09-05T07:16:43.427Z,25.66
2022-09-05T07:19:26.976Z,26.01
2022-09-05T07:22:48.144Z,26.57
2022-09-05T07:25:19.890Z,27.04
2022-09-05T07:28:26.960Z,27.40
2022-09-05T07:30:50.477Z,28.44
2022-09-05T07:33:21.502Z,29.30
2022-09-05T07:35:54.037Z,30.10
2022-09-05T07:38:40.067Z,30.03
2022-09-05T07:41:23.450Z,29.02
2022-09-05T07:43:56.401Z,30.43
2022-09-05T07:46:29.913Z,31.86
2022-09-05T07:49:02.952Z,32.61
2022-09-05T07:56:46.434Z,31.52
2022-09-05T07:57:09.637Z,30.56
2022-09-05T07:57:31.150Z,30.38
2022-09-05T08:00:08.188Z,30.99
2022-09-05T08:02:56.805Z,31.36
2022-09-05T08:05:35.143Z,30.63
2022-09-05T08:08:10.603Z,29.60
2022-09-05T08:11:23.335Z,29.77
2022-09-05T08:13:51.617Z,31.91
2022-09-05T08:16:23.986Z,32.04
2022-09-05T08:19:02.911Z,31.99
2022-09-05T08:21:44.658Z,31.53
2022-09-05T08:24:21.402Z,32.04
2022-09-05T08:26:56.292Z,31.00
2022-09-05T08:29:30.976Z,30.51
2022-09-05T08:32:08.326Z,30.70
2022-09-05T08:34:45.642Z,31.72
2022-09-05T08:37:21.888Z,32.27
2022-09-05T08:40:07.286Z,32.17
2022-09-05T08:44:20.986Z,31.84
2022-09-05T08:46:41.511Z,31.12
2022-09-05T08:49:11.384Z,30.52
2022-09-05T08:51:57.064Z,31.13
2022-09-05T08:54:36.368Z,30.86
2022-09-05T08:57:18.903Z,31.51
2022-09-05T09:00:18.527Z,31.82
2022-09-05T09:03:05.012Z,31.85
2022-09-05T09:06:14.068Z,32.14
2022-09-05T09:08:56.919Z,33.46
2022-09-05T09:11:34.394Z,33.85
2022-09-05T09:14:42.071Z,34.61
2022-09-05T09:17:24.335Z,35.80
2022-09-05T09:20:06.629Z,37.06
2022-09-05T09:22:42.394Z,38.42
2022-09-05T09:25:16.795Z,37.63
2022-09-05T09:28:47.245Z,37.53
2022-09-05T09:31:14.156Z,38.04
2022-09-05T09:33:49.051Z,38.06
2022-09-05T09:37:01.911Z,37.28
2022-09-05T09:39:43.581Z,36.67
2022-09-05T09:42:33.146Z,37.21
2022-09-05T09:45:29.211Z,38.52
2022-09-05T09:48:19.012Z,34.24
2022-09-05T09:51:06.556Z,33.52
2022-09-05T09:53:50.994Z,34.30
2022-09-05T09:56:46.588Z,34.84
2022-09-05T09:59:54.761Z,33.49
2022-09-05T10:10:36.001Z,33.31
2022-09-05T10:11:22.685Z,36.13
2022-09-05T10:15:00.276Z,41.97
2022-09-05T10:18:18.878Z,43.35
2022-09-05T10:21:25.755Z,45.02
2022-09-05T10:24:14.750Z,46.50
2022-09-05T10:27:06.693Z,47.22
2022-09-05T10:30:06.487Z,46.77
2022-09-05T10:35:11.087Z,44.68
2022-09-05T10:35:37.880Z,46.39
2022-09-05T10:38:12.585Z,44.89
2022-09-05T10:41:21.093Z,44.13
2022-09-05T10:43:45.729Z,42.21
2022-09-05T10:46:49.432Z,40.50
2022-09-05T10:49:17.703Z,42.44
2022-09-05T10:51:51.872Z,44.96
2022-09-05T10:54:44.384Z,46.68
2022-09-05T10:57:32.414Z,41.90
2022-09-05T11:02:21.509Z,42.57
2022-09-05T11:03:01.024Z,45.55
2022-09-05T11:05:32.558Z,47.46
2022-09-05T11:08:09.770Z,49.38
2022-09-05T11:10:42.098Z,49.71
2022-09-05T11:13:30.766Z,49.01
2022-09-05T11:16:13.372Z,49.86
2022-09-05T11:19:02.307Z,48.38
2022-09-05T11:21:44.719Z,48.75
2022-09-05T11:24:27.676Z,46.83
2022-09-05T11:27:23.595Z,45.95
2022-09-05T11:29:52.199Z,46.64
2022-09-05T11:39:36.443Z,44.09
2022-09-05T11:39:46.454Z,41.96
2022-09-05T11:39:56.070Z,40.24
2022-09-05T11:42:22.468Z,42.89
2022-09-05T11:45:34.806Z,38.95
2022-09-05T11:48:53.015Z,35.83
2022-09-05T11:51:56.756Z,39.74
2022-09-05T11:54:55.818Z,44.26
2022-09-05T11:57:38.729Z,45.20
2022-09-05T12:00:31.899Z,46.04
2022-09-05T12:04:00.339Z,47.27
2022-09-05T12:06:57.400Z,50.14
2022-09-05T12:09:42.906Z,46.89
2022-09-05T12:12:32.782Z,44.86
2022-09-05T12:15:26.708Z,48.35
2022-09-05T12:18:12.637Z,45.84
2022-09-05T12:20:55.458Z,46.34
2022-09-05T12:23:49.343Z,49.78
2022-09-05T12:27:42.635Z,52.09
2022-09-05T12:29:33.601Z,54.58
2022-09-05T12:32:08.730Z,55.27
2022-09-05T12:36:10.694Z,55.34
2022-09-05T12:40:35.535Z,52.55
2022-09-05T12:41:37.662Z,49.08
2022-09-05T12:44:39.909Z,47.47
2022-09-05T12:46:45.895Z,49.13
2022-09-05T12:49:23.350Z,51.81
2022-09-05T12:52:05.637Z,48.16
2022-09-05T12:54:44.223Z,51.51
2022-09-05T13:02:20.050Z,50.13
2022-09-05T13:03:05.222Z,49.29
2022-09-05T13:03:40.709Z,51.49
2022-09-05T13:06:24.827Z,52.56
2022-09-05T13:09:01.694Z,52.27
2022-09-05T13:14:49.836Z,48.95
2022-09-05T13:14:56.436Z,48.06
2022-09-05T13:17:31.307Z,49.35
2022-09-05T13:20:02.586Z,49.87
2022-09-05T13:22:32.177Z,47.63
2022-09-05T13:25:09.487Z,48.53
2022-09-05T13:27:44.970Z,48.77
2022-09-05T13:31:40.660Z,41.04
2022-09-05T13:38:00.572Z,39.50
2022-09-05T13:38:15.466Z,44.79
2022-09-05T13:39:03.824Z,46.15
2022-09-05T13:41:36.361Z,49.39
2022-09-05T13:44:25.101Z,50.67
2022-09-05T13:47:10.557Z,51.56
2022-09-05T13:50:05.036Z,52.41
2022-09-05T13:52:38.247Z,52.45
2022-09-05T13:55:20.911Z,51.22
2022-09-05T13:57:54.731Z,46.87
2022-09-05T14:00:38.243Z,46.00
2022-09-05T14:03:36.081Z,48.69
2022-09-05T14:06:36.615Z,46.01
2022-09-05T14:09:36.701Z,44.15
2022-09-05T14:12:12.525Z,46.57
2022-09-05T14:17:54.969Z,46.75
2022-09-05T14:20:49.770Z,42.20
2022-09-05T14:23:22.263Z,44.29
2022-09-05T14:25:56.735Z,41.54
2022-09-05T14:28:28.872Z,42.53
2022-09-05T14:37:36.619Z,43.03
2022-09-05T14:37:40.801Z,43.11
2022-09-05T14:37:55.739Z,42.50
2022-09-05T14:40:32.529Z,42.27
2022-09-05T14:43:31.105Z,43.12
2022-09-05T14:46:29.366Z,46.48
2022-09-05T14:49:19.612Z,44.59
2022-09-05T14:51:48.843Z,44.24
2022-09-05T15:00:36.551Z,38.85
2022-09-05T15:02:50.440Z,43.77
2022-09-05T15:03:06.848Z,45.60
2022-09-05T15:05:42.342Z,44.32
2022-09-05T15:09:39.005Z,42.35
2022-09-05T15:12:17.840Z,41.68
2022-09-05T15:14:03.648Z,42.14
2022-09-05T15:16:35.592Z,44.26
2022-09-05T15:19:03.921Z,44.55
2022-09-05T15:21:38.259Z,45.12
2022-09-05T15:24:17.542Z,44.58
2022-09-05T15:26:53.982Z,43.99
2022-09-05T15:29:24.951Z,43.98
2022-09-05T15:31:59.389Z,43.54
2022-09-05T15:34:38.476Z,42.30
2022-09-05T15:37:26.915Z,37.12
2022-09-05T15:40:23.396Z,40.70
2022-09-05T15:42:58.026Z,40.27
2022-09-05T15:45:29.787Z,40.71
2022-09-05T15:48:18.633Z,38.48
2022-09-05T15:50:51.190Z,36.53
2022-09-05T15:53:25.936Z,37.18
2022-09-05T15:56:00.880Z,37.23
2022-09-05T15:58:54.144Z,37.61
2022-09-05T16:01:49.881Z,39.71
2022-09-05T16:08:55.507Z,39.58
2022-09-05T16:10:29.414Z,40.95
2022-09-05T16:10:43.606Z,39.49
2022-09-05T16:12:50.454Z,36.97
2022-09-05T16:16:32.300Z,37.46
2022-09-05T16:23:15.645Z,34.77
2022-09-05T16:23:33.824Z,36.53
2022-09-05T16:24:05.901Z,38.79
2022-09-05T16:26:41.307Z,40.69
2022-09-05T16:29:25.240Z,41.03
2022-09-05T16:32:19.692Z,41.39
2022-09-05T16:34:55.470Z,40.06
2022-09-05T16:37:32.946Z,38.80
2022-09-05T16:40:13.194Z,38.31
2022-09-05T16:42:47.468Z,38.37
2022-09-05T16:45:25.843Z,37.97
2022-09-05T16:48:05.220Z,37.80
2022-09-05T16:50:48.073Z,35.79
2022-09-05T16:53:30.076Z,34.09
2022-09-05T16:56:04.763Z,32.81
2022-09-05T16:58:37.737Z,32.00
2022-09-05T17:01:20.600Z,31.35
2022-09-05T17:03:56.714Z,30.76
2022-09-05T17:06:43.687Z,30.99
2022-09-05T17:09:22.677Z,32.45
2022-09-05T17:12:01.477Z,33.04
2022-09-05T17:14:38.430Z,34.05
2022-09-05T17:17:54.096Z,33.96
2022-09-05T17:20:14.712Z,34.50
2022-09-05T17:27:19.890Z,34.98
2022-09-05T17:29:24.042Z,34.99
2022-09-05T17:29:35.089Z,34.05
2022-09-05T17:31:53.732Z,33.67
2022-09-05T17:34:44.106Z,32.29
2022-09-05T17:37:49.343Z,31.43
2022-09-05T17:40:52.320Z,30.82
2022-09-05T17:43:28.765Z,29.56
2022-09-05T17:46:12.181Z,28.75
2022-09-05T17:49:18.099Z,28.13
2022-09-05T17:52:27.348Z,27.63
2022-09-05T17:54:58.057Z,27.33
2022-09-05T17:57:39.964Z,27.03
2022-09-05T18:00:40.980Z,26.90
2022-09-05T18:03:09.227Z,26.89
2022-09-05T18:12:08.496Z,26.76
2022-09-05T18:15:04.908Z,26.82
2022-09-05T18:18:02.025Z,26.92
2022-09-05T18:20:37.001Z,26.80
2022-09-05T18:23:54.263Z,26.54
2022-09-05T18:26:27.395Z,26.34
2022-09-05T18:29:01.608Z,26.18
2022-09-05T18:31:59.439Z,26.13
2022-09-05T18:34:42.805Z,25.99
2022-09-05T18:37:50.674Z,25.86
2022-09-05T18:40:58.793Z,25.62
2022-09-05T18:43:39.267Z,25.52
2022-09-05T18:46:14.824Z,25.38
2022-09-05T18:48:55.552Z,25.24
2022-09-05T18:51:49.125Z,25.15
2022-09-05T18:54:20.213Z,25.02
2022-09-05T18:57:28.198Z,24.88
2022-09-05T18:59:52.935Z,24.77
2022-09-05T19:02:28.714Z,24.71
2022-09-05T19:05:18.380Z,24.67
2022-09-05T19:07:59.877Z,24.63
2022-09-05T19:10:34.538Z,24.52
2022-09-05T19:13:15.529Z,24.38
2022-09-05T19:15:57.215Z,24.27
2022-09-05T19:19:08.835Z,24.02
2022-09-05T19:21:42.703Z,23.91
2022-09-05T19:24:14.548Z,23.83
2022-09-05T19:26:45.476Z,23.70
2022-09-05T19:36:56.451Z,23.65
2022-09-05T19:37:05.137Z,23.59
2022-09-05T19:37:10.141Z,23.65
2022-09-05T19:38:12.779Z,23.41
2022-09-05T19:47:30.782Z,23.27
2022-09-05T19:47:40.611Z,23.26
2022-09-05T19:47:48.900Z,23.24
2022-09-05T19:49:15.394Z,23.12
2022-09-05T19:51:44.265Z,23.04
2022-09-05T19:54:26.711Z,22.95
2022-09-05T19:57:00.489Z,22.79
2022-09-05T19:59:33.879Z,22.77
2022-09-05T20:02:03.245Z,22.77
2022-09-05T20:04:39.465Z,22.73
2022-09-05T20:07:15.922Z,22.75
2022-09-05T20:09:47.132Z,22.71
2022-09-05T20:12:23.978Z,22.65
2022-09-05T20:14:52.878Z,22.47
2022-09-05T20:17:24.797Z,22.36
2022-09-05T20:20:09.873Z,22.35
2022-09-05T20:22:49.575Z,22.28
2022-09-05T20:25:35.773Z,22.20
2022-09-05T20:28:10.681Z,22.27
2022-09-05T20:30:44.020Z,22.29
2022-09-05T20:33:19.485Z,22.11
2022-09-05T20:42:51.241Z,21.84
2022-09-05T20:43:19.941Z,21.76
2022-09-05T20:43:26.645Z,21.79
2022-09-05T20:44:25.015Z,21.80
2022-09-05T20:52:34.921Z,21.71
2022-09-05T20:54:12.794Z,21.65
2022-09-05T20:54:17.180Z,21.54
2022-09-05T20:55:38.451Z,21.45
2022-09-05T20:58:12.791Z,21.40
2022-09-05T21:01:19.500Z,21.41
2022-09-05T21:03:36.823Z,21.17
2022-09-05T21:06:20.121Z,21.18
2022-09-05T21:08:50.401Z,21.28
2022-09-05T21:11:29.055Z,21.29
2022-09-05T21:14:00.849Z,21.17
2022-09-05T21:16:31.583Z,21.03
2022-09-05T21:19:00.339Z,20.89
2022-09-05T21:21:30.730Z,20.69
2022-09-05T21:24:17.380Z,20.62
2022-09-05T21:26:47.922Z,20.70
2022-09-05T21:29:18.137Z,20.68
2022-09-05T21:31:54.475Z,20.65
2022-09-05T21:34:27.971Z,20.54
2022-09-05T21:37:06.854Z,20.63
2022-09-05T21:39:54.019Z,20.56
2022-09-05T21:45:22.047Z,20.62
2022-09-05T21:47:49.015Z,20.73
2022-09-05T21:48:09.034Z,20.78
2022-09-05T21:50:40.855Z,20.90
2022-09-05T21:55:06.395Z,20.89
2022-09-05T21:59:16.979Z,20.89
2022-09-05T21:59:29.242Z,20.83
2022-09-05T22:01:51.730Z,20.93
2022-09-05T22:04:22.355Z,20.97
2022-09-05T22:06:53.127Z,21.04
2022-09-05T22:09:23.260Z,21.14
2022-09-05T22:11:53.038Z,21.09
2022-09-05T22:14:24.824Z,20.91
2022-09-05T22:16:56.520Z,20.74
2022-09-05T22:19:36.770Z,20.71
2022-09-05T22:22:16.430Z,20.76
2022-09-05T22:24:48.775Z,20.72
2022-09-05T22:27:21.148Z,20.64
2022-09-05T22:29:51.342Z,20.60
2022-09-05T22:32:26.594Z,20.61
2022-09-05T22:35:26.754Z,20.66
2022-09-05T22:37:59.821Z,20.73
2022-09-05T22:40:31.532Z,20.70
2022-09-05T22:43:05.386Z,20.71
2022-09-05T22:45:44.057Z,20.65
2022-09-05T22:48:15.673Z,20.55
2022-09-05T22:50:44.119Z,20.32
2022-09-05T22:53:12.487Z,20.26
2022-09-05T22:55:42.924Z,20.14
2022-09-05T22:58:15.728Z,20.10
2022-09-05T23:00:44.678Z,20.06
2022-09-05T23:03:13.463Z,20.06
2022-09-05T23:05:43.385Z,20.03
2022-09-05T23:08:14.780Z,20.04
2022-09-05T23:10:44.297Z,20.18
2022-09-05T23:13:13.677Z,20.28
2022-09-05T23:15:41.838Z,20.42
2022-09-05T23:18:10.056Z,20.51
2022-09-05T23:20:38.295Z,20.60
2022-09-05T23:23:08.010Z,20.63
2022-09-05T23:25:37.117Z,20.55
2022-09-05T23:28:09.585Z,20.37
2022-09-05T23:30:39.976Z,20.39
2022-09-05T23:33:09.518Z,20.25
2022-09-05T23:35:38.169Z,20.17
2022-09-05T23:38:09.657Z,20.00
2022-09-05T23:40:37.651Z,19.87
2022-09-05T23:43:06.035Z,19.44
2022-09-05T23:45:52.319Z,19.43
2022-09-05T23:48:21.779Z,19.07
2022-09-05T23:50:49.905Z,18.65
2022-09-05T23:53:18.566Z,18.60
2022-09-05T23:55:46.696Z,18.73
2022-09-05T23:58:14.788Z,18.80
